Amunt
Inicio > meteoXarxa
Fes-te'n soci

METEOXARXA

Cabanes
Ubicació la Ribera de Cabanes
Comarca la Plana Alta
Altitud (msnm)
Posició geogràfica 40° 7' 31.08" N, 00° 9' 21.96" E
Model
Presa de dades
Font de les dades IVIA
Estadístiques. Resum
Data Temperatura (ºC) Humitat (%) Pressió (hPa) Vent (km/h) Precipit. (mm)
Mínima Mitjana Màxima Mínima Mitjana Màxima Mínima Mitjana Màxima Predom. Mitjana Ràfega màxima Total Dies de pluja
Mínima Mitjana Màxima Mínima Mitjana Màxima
Últimes dades diàries
20-02-2017 6,7     10,8     18,0 63,1 W 5,6 13,8 0,0  
19-02-2017 6,8     10,8     16,2 77,8 NW 4,8 20,5 0,0  
18-02-2017 5,3     9,7     15,8 78,5 W 5,6 15,8 0,0  
17-02-2017 5,8     10,1     15,4 83,9 W 5,4 13,7 0,0  
16-02-2017 7,5     11,6     16,3 86,4 W 3,4 12,1 0,0  
15-02-2017 6,7     10,9     16,4 83,7 NW 4,0 13,4 0,0  
14-02-2017 7,2     10,7     16,6 82,3 NW 4,9 13,9 0,0  
13-02-2017 8,7     12,3     15,7 85,9 N 7,3 28,5 9,3  
12-02-2017 10,6     12,8     15,9 79,2 NE 8,7 20,5 0,0  
11-02-2017 6,1     10,1     13,2 81,2 N 7,4 23,8 0,2  
10-02-2017 3,5     7,9     13,3 70,7 W 5,6 14,2 0,0  
09-02-2017 4,8     9,2     14,5 46,4 W 8,2 32,3 0,0  
08-02-2017 8,7     10,6     14,0 36,9 NW 18,0 41,4 0,0  
07-02-2017 8,1     14,8     23,1 57,5 NW 3,9 25,6 0,0  
06-02-2017 10,1     13,5     18,0 43,1 W 6,0 30,2 0,0  
05-02-2017 8,9     13,8     17,8 44,3 W 13,5 48,2 2,0  
04-02-2017 13,8     16,5     20,3 58,8 SW 4,8 17,5 0,0  
03-02-2017 8,5     14,3     21,0 59,2 SW 4,5 24,7 0,0  
02-02-2017 3,8     9,2     13,8 90,4 W 2,6 14,0 2,4  
01-02-2017 6,8     10,3     15,7 88,2 W 4,4 14,4 0,0  
30-01-2017 8,0     11,3     16,2 77,9 W 3,8 12,1 0,0  
29-01-2017 4,2     9,6     15,1 66,5 W 3,4 12,5 0,0  
28-01-2017 5,1     11,4     17,4 58,6 N 5,7 24,8 2,4  
27-01-2017 7,9     10,4     15,1 84,9 W 3,9 19,3 22,6  
26-01-2017 3,8     7,7     12,0 78,3 W 3,8 13,5 0,0  
25-01-2017 3,4     7,8     13,9 63,8 NW 5,5 16,0 0,0  
24-01-2017 4,6     9,3     15,9 62,6 W 2,7 11,3 0,0  
23-01-2017 6,9     10,6     14,8 58,8 N 6,5 24,1 0,0  
22-01-2017 9,3     10,7     11,5 58,1 N 12,4 33,8 0,4  
21-01-2017 7,7     10,0     11,7 69,5 N 15,3 36,9 5,3  
20-01-2017 8,1     9,2     11,2 91,9 NE 14,3 33,8 47,7  
19-01-2017 3,2     6,8     9,0 64,0 NE 14,1 38,3 56,8  
Dades del mes en curs (actualitzades fins l'últim dia disponible)
02/2017 3,5 7,4 13,8 11,5 13,2 16,6 23,1 69,9   6,4 48,2 13,9  
Últimes dades mensuals
01/2017 -0,9 5,5 9,7 14,5 18,7 14,9 65,7 96,3 NO 6,8 43,6 135,1
12/2016 4,4 8,5 14,5 11,7 11,8 16,5 19,6 52,2 77,6 88,6 6,1 30,3 82,6 8
11/2016 2,8 9,6 15,0 14,1 14,3 19,4 26,4 46,0 69,5 89,4 4,2 25,4 45,2 3
10/2016 11,2 15,7 18,5 19,4 19,5 24,1 27,9 64,0 77,2 90,0 3,4 29,3 0,4 2
09/2016 13,6 18,3 23,2 29,2 33,6 20,7 66,3 95,6 O 3,0 23,5 16,2
08/2016 15,8 20,2 25,2 30,8 34,5 25,2 68,4 94,5 O 2,2 20,1 19,4
07/2016 15,1 19,7 25,4 31,0 33,8 27,2 62,9 91,0 SO 2,1 21,2 0,0
06/2016 12,6 16,7 21,0 22,3 24,7 27,6 30,2 41,6 62,4 74,4 3,5 19,6 0,6 2
05/2016 6,3 12,2 17,6 22,8 29,1 16,5 68,1 97,5 SO 4,0 28,2 32,7
04/2016 5,8 10,0 15,2 20,9 28,2 21,7 67,1 97,7 O 4,5 28,7 42,4
03/2016 2,6 7,3 12,7 18,4 24,1 19,2 59,8 95,9 NO 4,6 28,7 43,6
02/2016 0,7 6,8 12,3 18,7 26,9 18,5 55,9 94,1 O 4,9 35,9 5,9
01/2016 0,8 7,1 12,1 17,7 23,4 20,3 65,4 95,6 O 4,0 34,5 2,8
Dades de l'any en curs (actualitzades fins l'últim dia disponible)
2017 -0,9 6,2 13,8 10,4 9,0 15,4 23,1 67,5   6,6 48,2 149,1  
Últimes dades anuals
2007 727,0
2008 605,0
2009 -1,4 15,3 22,7 20,2 8,0 25,6 42,7 34,0 66,2 95,0 4,4 63,0 484,2 50
2010 -1,5 11,6 23,3 16,4 5,3 21,4 35,0 28,0 67,1 96,0 4,7 60,0 361,0 92
2011 448,9
2012 198,9
2014 -1,7 13,0 17,8 23,2 34,6 13,4 66,7 95,5 SO 4,4 45,0 357,9
2015 -4,1 11,6 17,1 23,2 42,3 6,5 70,5 100,0 SO 2,7 32,2 504,3